createdAt,value
2023-01-27T00:43:06.705Z,0.30
2023-01-27T00:45:49.817Z,0.30
2023-01-27T00:48:18.183Z,0.30
2023-01-27T00:50:48.261Z,0.30
2023-01-27T00:53:16.576Z,0.30
2023-01-27T00:55:45.259Z,0.30
2023-01-27T00:58:13.511Z,0.30
2023-01-27T01:00:41.813Z,0.20
2023-01-27T01:03:10.247Z,1.00
2023-01-27T01:05:38.647Z,0.20
2023-01-27T01:08:08.418Z,0.20
2023-01-27T01:10:39.152Z,0.40
2023-01-27T01:13:10.236Z,0.30
2023-01-27T01:15:38.715Z,0.30
2023-01-27T01:18:09.618Z,0.30
2023-01-27T01:20:39.566Z,0.30
2023-01-27T01:23:09.831Z,0.30
2023-01-27T01:25:38.381Z,0.30
2023-01-27T01:28:08.082Z,0.30
2023-01-27T01:30:38.964Z,0.30
2023-01-27T01:33:07.451Z,0.40
2023-01-27T01:35:39.777Z,0.20
2023-01-27T01:38:10.080Z,0.30
2023-01-27T01:40:42.140Z,0.20
2023-01-27T01:43:15.378Z,0.20
2023-01-27T01:45:49.835Z,0.20
2023-01-27T01:48:24.605Z,0.20
2023-01-27T01:50:56.688Z,0.20
2023-01-27T01:53:31.585Z,0.20
2023-01-27T01:56:03.482Z,0.20
2023-01-27T01:58:31.859Z,0.30
2023-01-27T02:01:00.177Z,0.20
2023-01-27T02:03:30.702Z,0.20
2023-01-27T02:05:59.173Z,0.20
2023-01-27T02:08:31.861Z,0.20
2023-01-27T02:11:00.378Z,0.20
2023-01-27T02:13:28.667Z,0.10
2023-01-27T02:15:58.227Z,0.10
2023-01-27T02:18:28.365Z,0.10
2023-01-27T02:20:58.745Z,0.20
2023-01-27T02:23:40.937Z,0.50
2023-01-27T02:26:17.103Z,0.20
2023-01-27T02:28:45.620Z,0.10
2023-01-27T02:31:14.079Z,0.10
2023-01-27T02:33:42.450Z,0.10
2023-01-27T02:36:14.497Z,0.10
2023-01-27T02:38:46.957Z,0.10
2023-01-27T02:41:21.344Z,0.10
2023-01-27T02:43:50.160Z,0.10
2023-01-27T02:46:19.374Z,0.10
2023-01-27T02:48:47.663Z,0.30
2023-01-27T02:51:16.352Z,0.10
2023-01-27T02:53:45.929Z,0.20
2023-01-27T02:56:14.444Z,0.10
2023-01-27T02:58:44.864Z,0.20
2023-01-27T03:01:17.315Z,0.10
2023-01-27T03:03:47.621Z,0.00
2023-01-27T03:06:20.420Z,0.10
2023-01-27T03:08:49.380Z,0.10
2023-01-27T03:11:38.824Z,0.00
2023-01-27T03:14:11.437Z,0.20
2023-01-27T03:16:58.449Z,0.00
2023-01-27T03:19:26.915Z,0.10
2023-01-27T03:21:56.327Z,0.10
2023-01-27T03:24:26.048Z,0.10
2023-01-27T03:26:56.893Z,0.10
2023-01-27T03:29:56.652Z,0.10
2023-01-27T03:32:27.454Z,0.10
2023-01-27T03:35:17.013Z,0.10
2023-01-27T03:38:05.656Z,0.10
2023-01-27T03:40:51.103Z,0.20
2023-01-27T03:43:37.362Z,0.30
2023-01-27T03:46:18.346Z,0.10
2023-01-27T03:48:50.717Z,0.00
2023-01-27T03:51:19.894Z,0.00
2023-01-27T03:53:48.377Z,0.00
2023-01-27T03:56:17.317Z,0.00
2023-01-27T03:58:45.759Z,0.00
2023-01-27T04:01:17.993Z,0.00
2023-01-27T04:04:04.630Z,0.00
2023-01-27T04:06:51.935Z,0.60
2023-01-27T04:09:22.700Z,0.00
2023-01-27T04:11:55.957Z,0.00
2023-01-27T04:14:26.353Z,0.00
2023-01-27T04:16:58.177Z,0.00
2023-01-27T04:19:27.110Z,0.00
2023-01-27T04:21:55.851Z,0.00
2023-01-27T04:24:24.204Z,0.00
2023-01-27T04:26:56.038Z,0.00
2023-01-27T04:29:26.311Z,0.00
2023-01-27T04:31:57.913Z,0.00
2023-01-27T04:34:27.059Z,0.00
2023-01-27T04:36:55.678Z,0.00
2023-01-27T04:39:24.566Z,0.30
2023-01-27T04:41:53.060Z,0.00
2023-01-27T04:44:21.375Z,0.10
2023-01-27T04:46:50.192Z,0.10
2023-01-27T04:49:20.178Z,0.10
2023-01-27T04:51:48.781Z,0.10
2023-01-27T04:54:18.414Z,0.10
2023-01-27T04:56:57.436Z,0.20
2023-01-27T04:59:25.769Z,0.20
2023-01-27T05:01:54.326Z,0.30
2023-01-27T05:04:26.362Z,0.20
2023-01-27T05:06:54.905Z,0.10
2023-01-27T05:09:23.406Z,0.30
2023-01-27T05:11:51.672Z,0.10
2023-01-27T05:14:20.207Z,0.10
2023-01-27T05:16:48.604Z,0.10
2023-01-27T05:19:17.337Z,0.10
2023-01-27T05:21:47.033Z,0.10
2023-01-27T05:24:15.467Z,0.10
2023-01-27T05:26:43.809Z,0.10
2023-01-27T05:29:12.092Z,0.60
2023-01-27T05:31:40.440Z,0.10
2023-01-27T05:34:09.984Z,0.00
2023-01-27T05:36:38.355Z,0.10
2023-01-27T05:39:09.151Z,0.10
2023-01-27T05:41:37.829Z,0.10
2023-01-27T05:44:06.846Z,0.10
2023-01-27T05:46:35.141Z,0.10
2023-01-27T05:49:05.584Z,0.10
2023-01-27T05:51:35.872Z,0.10
2023-01-27T05:54:04.930Z,0.10
2023-01-27T05:56:35.237Z,0.10
2023-01-27T05:59:03.543Z,0.10
2023-01-27T06:01:33.604Z,0.40
2023-01-27T06:04:02.378Z,0.10
2023-01-27T06:06:32.399Z,0.10
2023-01-27T06:09:01.135Z,0.10
2023-01-27T06:11:29.502Z,0.10
2023-01-27T06:13:59.185Z,0.10
2023-01-27T06:16:27.444Z,0.00
2023-01-27T06:18:55.806Z,0.10
2023-01-27T06:21:24.128Z,0.00
2023-01-27T06:23:53.534Z,0.00
2023-01-27T06:26:21.889Z,0.40
2023-01-27T06:28:50.300Z,0.00
2023-01-27T06:31:22.892Z,0.00
2023-01-27T06:33:51.664Z,0.30
2023-01-27T06:36:22.286Z,0.00
2023-01-27T06:38:51.516Z,0.00
2023-01-27T06:41:20.817Z,0.00
2023-01-27T06:43:49.124Z,0.00
2023-01-27T06:46:17.752Z,0.00
2023-01-27T06:48:47.376Z,0.00
2023-01-27T06:51:15.858Z,0.10
2023-01-27T06:53:44.272Z,0.00
2023-01-27T06:56:12.754Z,0.00
2023-01-27T06:58:41.093Z,0.00
2023-01-27T07:01:09.456Z,0.00
2023-01-27T07:03:37.833Z,0.10
2023-01-27T07:06:07.885Z,0.30
2023-01-27T07:08:36.270Z,0.10
2023-01-27T07:11:05.731Z,0.30
2023-01-27T07:13:34.108Z,0.20
2023-01-27T07:16:02.515Z,0.10
2023-01-27T07:18:30.990Z,0.20
2023-01-27T07:20:59.493Z,0.20
2023-01-27T07:23:29.211Z,0.90
2023-01-27T07:26:00.011Z,0.20
2023-01-27T07:28:29.104Z,0.30
2023-01-27T07:31:01.570Z,0.30
2023-01-27T07:33:30.049Z,0.30
2023-01-27T07:35:58.392Z,0.40
2023-01-27T08:09:00.564Z,0.80
2023-01-27T08:11:30.369Z,0.90
2023-01-27T08:13:58.819Z,1.10
2023-01-27T08:16:27.190Z,1.10
2023-01-27T08:18:56.786Z,1.00
2023-01-27T08:21:25.945Z,0.90
2023-01-27T08:23:54.845Z,1.00
2023-01-27T08:26:23.071Z,0.90
2023-01-27T08:28:52.973Z,0.90
2023-01-27T08:31:21.562Z,1.10
2023-01-27T08:33:54.093Z,1.10
2023-01-27T08:36:23.883Z,1.40
2023-01-27T08:38:52.350Z,1.20
2023-01-27T08:41:22.273Z,1.30
2023-01-27T08:43:52.005Z,1.30
2023-01-27T08:46:20.399Z,1.30
2023-01-27T08:48:50.344Z,1.30
2023-01-27T08:51:18.765Z,1.30
2023-01-27T08:53:47.048Z,1.30
2023-01-27T08:56:16.655Z,1.40
2023-01-27T08:58:47.437Z,1.50
2023-01-27T09:01:17.462Z,1.60
2023-01-27T09:03:46.155Z,1.90
2023-01-27T09:06:15.172Z,1.70
2023-01-27T09:08:44.269Z,1.80
2023-01-27T09:11:14.603Z,2.00
2023-01-27T09:13:43.484Z,1.90
2023-01-27T09:16:11.870Z,2.00
2023-01-27T09:18:42.532Z,2.00
2023-01-27T09:21:11.824Z,2.00
2023-01-27T09:23:40.148Z,2.00
2023-01-27T09:26:08.481Z,1.90
2023-01-27T09:28:36.746Z,2.20
2023-01-27T09:31:05.246Z,2.30
2023-01-27T09:33:33.697Z,1.90
2023-01-27T09:36:09.782Z,2.10
2023-01-27T09:38:41.126Z,2.00
2023-01-27T09:41:35.639Z,2.00
2023-01-27T09:44:25.092Z,2.00
2023-01-27T09:47:16.907Z,2.10
2023-01-27T09:50:01.667Z,2.20
2023-01-27T09:53:01.238Z,2.10
2023-01-27T09:55:42.819Z,2.10
2023-01-27T09:58:20.120Z,2.10
2023-01-27T10:00:59.773Z,2.10
2023-01-27T10:03:43.434Z,2.50
2023-01-27T10:06:33.205Z,2.40
2023-01-27T10:09:35.612Z,2.10
2023-01-27T10:12:14.893Z,2.00
2023-01-27T10:14:50.302Z,2.00
2023-01-27T10:17:32.355Z,2.20
2023-01-27T10:20:15.936Z,2.10
2023-01-27T10:22:54.329Z,2.30
2023-01-27T10:25:33.832Z,2.20
2023-01-27T10:28:08.183Z,2.20
2023-01-27T10:30:38.223Z,2.30
2023-01-27T10:33:17.496Z,2.10
2023-01-27T10:35:53.467Z,2.20
2023-01-27T10:38:34.131Z,2.20
2023-01-27T10:41:17.358Z,2.20
2023-01-27T10:43:54.924Z,2.40
2023-01-27T10:46:31.685Z,2.20
2023-01-27T10:49:05.743Z,2.20
2023-01-27T10:51:39.779Z,2.20
2023-01-27T10:54:15.335Z,2.40
2023-01-27T10:56:50.739Z,2.20
2023-01-27T10:59:25.113Z,2.00
2023-01-27T11:01:57.687Z,2.20
2023-01-27T11:04:35.955Z,2.40
2023-01-27T11:07:06.676Z,2.50
2023-01-27T11:09:37.703Z,3.00
2023-01-27T11:12:13.744Z,3.00
2023-01-27T11:14:47.155Z,2.80
2023-01-27T11:17:21.374Z,2.80
2023-01-27T11:19:58.377Z,2.90
2023-01-27T11:22:35.864Z,2.70
2023-01-27T11:25:07.497Z,3.00
2023-01-27T11:28:11.933Z,2.80
2023-01-27T11:30:47.164Z,2.70
2023-01-27T11:33:22.880Z,2.70
2023-01-27T11:35:52.475Z,2.60
2023-01-27T11:38:23.533Z,2.70
2023-01-27T11:40:53.980Z,2.80
2023-01-27T11:43:27.828Z,2.80
2023-01-27T11:46:01.824Z,2.90
2023-01-27T11:48:41.137Z,2.70
2023-01-27T11:51:20.945Z,2.70
2023-01-27T11:53:56.553Z,2.70
2023-01-27T11:56:27.014Z,2.60
2023-01-27T11:59:02.700Z,2.50
2023-01-27T12:01:47.072Z,2.60
2023-01-27T12:04:22.607Z,2.30
2023-01-27T12:06:56.370Z,2.30
2023-01-27T12:09:36.792Z,2.00
2023-01-27T12:12:24.358Z,2.30
2023-01-27T12:14:55.636Z,2.00
2023-01-27T12:17:29.315Z,2.00
2023-01-27T12:20:00.102Z,2.10
2023-01-27T12:22:31.524Z,2.10
2023-01-27T12:25:03.523Z,2.10
2023-01-27T12:27:34.730Z,2.20
2023-01-27T12:30:21.812Z,2.10
2023-01-27T12:32:51.351Z,2.00
2023-01-27T12:35:25.368Z,1.90
2023-01-27T12:38:04.248Z,2.20
2023-01-27T12:40:34.967Z,2.50
2023-01-27T12:43:12.936Z,1.90
2023-01-27T12:45:43.474Z,2.10
2023-01-27T12:48:20.824Z,1.80
2023-01-27T12:51:06.804Z,2.10
2023-01-27T12:53:35.196Z,1.80
2023-01-27T12:56:13.183Z,1.70
2023-01-27T12:58:44.473Z,1.70
2023-01-27T13:01:41.224Z,1.80
2023-01-27T13:04:16.584Z,1.90
2023-01-27T13:06:47.681Z,1.50
2023-01-27T13:09:29.089Z,1.50
2023-01-27T13:12:01.049Z,1.60
2023-01-27T13:14:31.399Z,1.70
2023-01-27T13:17:02.156Z,1.90
2023-01-27T13:19:39.214Z,2.00
2023-01-27T13:22:17.529Z,2.10
2023-01-27T13:24:46.498Z,2.10
2023-01-27T13:27:18.585Z,2.30
2023-01-27T13:29:55.827Z,2.50
2023-01-27T13:32:29.673Z,2.30
2023-01-27T13:35:06.807Z,2.20
2023-01-27T13:37:40.212Z,2.20
2023-01-27T13:40:29.222Z,2.10
2023-01-27T13:43:05.124Z,2.10
2023-01-27T13:45:41.443Z,2.00
2023-01-27T13:48:19.123Z,2.00
2023-01-27T13:50:52.209Z,1.80
2023-01-27T13:53:40.995Z,2.10
2023-01-27T13:56:27.619Z,1.70
2023-01-27T13:59:08.783Z,1.90
2023-01-27T14:01:48.931Z,1.70
2023-01-27T14:04:56.550Z,1.80
2023-01-27T14:07:31.992Z,1.80
2023-01-27T14:10:21.785Z,2.10
2023-01-27T14:13:08.793Z,1.60
2023-01-27T14:15:43.009Z,1.50
2023-01-27T14:18:16.165Z,1.80
2023-01-27T14:21:02.102Z,1.40
2023-01-27T14:23:43.324Z,1.30
2023-01-27T14:26:20.942Z,1.40
2023-01-27T14:29:02.916Z,1.50
2023-01-27T14:31:47.172Z,1.40
2023-01-27T14:34:36.558Z,1.30
2023-01-27T14:37:16.255Z,1.20
2023-01-27T14:39:55.814Z,1.40
2023-01-27T14:42:31.154Z,1.10
2023-01-27T14:45:07.220Z,1.10
2023-01-27T14:47:44.272Z,1.10
2023-01-27T14:50:25.199Z,1.00
2023-01-27T14:53:09.693Z,0.90
2023-01-27T14:55:46.436Z,1.10
2023-01-27T14:58:39.306Z,0.90
2023-01-27T15:01:16.423Z,0.90
2023-01-27T15:04:27.495Z,0.80
2023-01-27T15:06:59.984Z,0.80
2023-01-27T15:09:46.082Z,1.00
2023-01-27T15:12:44.232Z,0.80
2023-01-27T15:15:54.047Z,0.70
2023-01-27T15:18:49.734Z,0.70
2023-01-27T15:21:45.194Z,0.70
2023-01-27T15:24:33.407Z,0.70
2023-01-27T15:27:03.579Z,0.70
2023-01-27T15:29:32.388Z,0.90
2023-01-27T15:32:27.363Z,0.70
2023-01-27T15:35:51.374Z,0.80
2023-01-27T15:38:22.541Z,0.60
2023-01-27T15:41:19.588Z,0.60
2023-01-27T15:44:15.810Z,0.70
2023-01-27T15:46:46.761Z,0.60
2023-01-27T15:49:22.440Z,0.60
2023-01-27T15:51:54.343Z,0.70
2023-01-27T15:54:27.870Z,0.60
2023-01-27T15:57:01.687Z,0.60
2023-01-27T15:59:58.498Z,0.60
2023-01-27T16:02:30.136Z,0.60
2023-01-27T16:05:07.760Z,0.60
2023-01-27T16:07:39.341Z,0.50
2023-01-27T16:10:26.888Z,0.60
2023-01-27T16:13:21.555Z,0.90
2023-01-27T16:15:51.765Z,1.00
2023-01-27T16:18:44.746Z,0.60
2023-01-27T16:21:33.269Z,1.20
2023-01-27T16:24:07.258Z,0.50
2023-01-27T16:26:43.425Z,0.50
2023-01-27T16:29:49.198Z,0.50
2023-01-27T16:32:21.019Z,0.50
2023-01-27T16:35:06.238Z,0.60
2023-01-27T16:37:38.087Z,0.10
2023-01-27T16:40:15.067Z,0.50
2023-01-27T16:42:55.672Z,0.50
2023-01-27T16:45:26.562Z,0.60
2023-01-27T16:48:00.315Z,0.50
2023-01-27T16:50:37.160Z,1.00
2023-01-27T16:53:06.970Z,0.30
2023-01-27T16:55:35.678Z,0.40
2023-01-27T16:58:04.320Z,0.40
2023-01-27T17:00:35.955Z,0.40
2023-01-27T17:03:14.765Z,0.40
2023-01-27T17:05:44.740Z,0.40
2023-01-27T17:08:20.111Z,0.30
2023-01-27T17:11:21.160Z,0.30
2023-01-27T17:14:46.658Z,0.40
2023-01-27T17:44:15.675Z,0.20
2023-01-27T17:56:21.029Z,0.20
2023-01-27T18:03:28.862Z,0.30
2023-01-27T18:35:26.313Z,0.00
2023-01-27T18:38:00.652Z,0.20
2023-01-27T18:40:59.329Z,0.50
2023-01-27T18:43:44.373Z,-0.20
2023-01-27T18:46:14.050Z,0.30
2023-01-27T18:48:42.770Z,0.10
2023-01-27T18:51:14.677Z,0.30
2023-01-27T18:53:43.686Z,0.30
2023-01-27T18:56:16.652Z,0.50
2023-01-27T18:58:48.995Z,0.10
2023-01-27T19:01:26.979Z,1.00
2023-01-27T19:03:58.278Z,0.20
2023-01-27T19:06:27.636Z,0.10
2023-01-27T19:08:56.747Z,0.10
2023-01-27T19:11:25.180Z,0.50
2023-01-27T19:13:56.065Z,0.10
2023-01-27T19:16:28.545Z,0.20
2023-01-27T19:18:57.081Z,0.20
2023-01-27T19:21:25.375Z,0.20
2023-01-27T19:23:53.780Z,0.10
2023-01-27T19:26:24.357Z,0.20
2023-01-27T19:28:57.767Z,0.10
2023-01-27T19:31:28.997Z,0.30
2023-01-27T19:34:12.004Z,0.20
2023-01-27T19:36:43.934Z,0.20
2023-01-27T19:39:15.007Z,0.20
2023-01-27T19:41:47.608Z,0.50
2023-01-27T19:44:27.810Z,0.20
2023-01-27T19:46:56.299Z,0.20
2023-01-27T19:49:28.580Z,0.30
2023-01-27T19:51:57.978Z,0.20
2023-01-27T19:54:32.486Z,0.20
2023-01-27T19:57:03.636Z,0.20
2023-01-27T19:59:33.519Z,0.20
2023-01-27T20:02:01.800Z,0.20
2023-01-27T20:04:32.165Z,0.20
2023-01-27T20:07:00.710Z,0.50
2023-01-27T20:09:29.141Z,0.20
2023-01-27T20:11:57.591Z,0.20
2023-01-27T20:14:26.296Z,0.20
2023-01-27T20:16:56.648Z,0.50
2023-01-27T20:19:26.313Z,0.20
2023-01-27T20:21:58.277Z,0.20
2023-01-27T20:24:26.694Z,0.30
2023-01-27T20:26:56.532Z,0.20
2023-01-27T20:29:25.082Z,0.30
2023-01-27T20:32:15.474Z,0.20
2023-01-27T20:34:43.791Z,0.60
2023-01-27T20:37:12.974Z,0.40
2023-01-27T20:39:42.141Z,0.30
2023-01-27T20:42:10.773Z,0.20
2023-01-27T20:44:39.137Z,0.20
2023-01-27T20:47:07.488Z,0.20
2023-01-27T20:49:41.802Z,0.20
2023-01-27T20:52:10.185Z,0.20
2023-01-27T20:54:38.629Z,0.20
2023-01-27T20:57:07.017Z,0.30
2023-01-27T20:59:35.468Z,0.20
2023-01-27T21:02:03.814Z,0.30
2023-01-27T21:04:32.492Z,0.20
2023-01-27T21:07:02.295Z,0.20
2023-01-27T21:09:32.077Z,0.20
2023-01-27T21:12:00.591Z,0.40
2023-01-27T21:14:29.435Z,0.30
2023-01-27T21:16:57.986Z,-0.20
2023-01-27T21:19:26.447Z,0.20
2023-01-27T21:21:54.993Z,0.10
2023-01-27T21:24:25.358Z,0.10
2023-01-27T21:26:54.419Z,0.10
2023-01-27T21:29:22.823Z,0.10
2023-01-27T21:31:51.471Z,0.10
2023-01-27T21:34:20.068Z,0.10
2023-01-27T21:36:49.497Z,0.10
2023-01-27T21:39:18.119Z,0.10
2023-01-27T21:42:05.124Z,0.10
2023-01-27T21:44:51.625Z,0.10
2023-01-27T21:47:21.152Z,0.10
2023-01-27T21:50:15.465Z,0.40
2023-01-27T21:52:46.155Z,0.10
2023-01-27T21:55:16.738Z,0.10
2023-01-27T21:57:48.476Z,0.10
2023-01-27T22:00:18.591Z,0.10
2023-01-27T22:02:46.914Z,0.10
2023-01-27T22:05:15.717Z,0.10
2023-01-27T22:07:44.391Z,0.10
2023-01-27T22:10:18.467Z,0.10
2023-01-27T22:12:49.917Z,0.10
2023-01-27T22:15:20.431Z,0.10
2023-01-27T22:17:48.632Z,0.10
2023-01-27T22:20:17.968Z,0.30
2023-01-27T22:22:46.687Z,0.10
2023-01-27T22:25:17.039Z,0.10
2023-01-27T22:27:47.539Z,0.10
2023-01-27T22:30:17.914Z,0.10
2023-01-27T22:32:46.965Z,0.10
2023-01-27T22:35:16.665Z,0.10
2023-01-27T22:37:45.461Z,0.10
2023-01-27T22:40:14.800Z,0.10
2023-01-27T22:42:43.148Z,0.10
2023-01-27T22:45:13.796Z,0.30
2023-01-27T22:47:42.347Z,0.40
2023-01-27T22:50:12.677Z,0.10
2023-01-27T22:52:40.928Z,0.10
2023-01-27T22:55:11.199Z,0.10
2023-01-27T22:57:39.518Z,0.10
2023-01-27T23:00:09.867Z,0.20
2023-01-27T23:02:39.706Z,0.10
2023-01-27T23:05:08.741Z,0.10
2023-01-27T23:07:36.992Z,0.10
2023-01-27T23:10:05.983Z,0.10
2023-01-27T23:12:34.291Z,0.10
2023-01-27T23:15:03.819Z,0.40
2023-01-27T23:17:32.127Z,0.20
2023-01-27T23:20:01.821Z,0.30
2023-01-27T23:22:30.124Z,0.20
2023-01-27T23:24:58.345Z,0.20
2023-01-27T23:27:28.623Z,0.20
2023-01-27T23:29:56.940Z,0.20
2023-01-27T23:32:25.517Z,0.30
2023-01-27T23:34:53.784Z,0.20
2023-01-27T23:37:23.800Z,0.20
2023-01-27T23:39:52.335Z,0.20
2023-01-27T23:42:20.887Z,0.20
2023-01-27T23:44:49.264Z,0.20
2023-01-27T23:47:17.999Z,0.20
2023-01-27T23:49:46.497Z,0.20
2023-01-27T23:52:14.827Z,0.20
2023-01-27T23:54:44.505Z,0.20
2023-01-27T23:57:12.755Z,0.20
2023-01-27T23:59:41.398Z,0.20
